createdAt,value
2018-12-01T00:02:28.470Z,99.90
2018-12-01T00:04:56.906Z,99.90
2018-12-01T00:07:25.366Z,99.90
2018-12-01T00:09:53.790Z,99.90
2018-12-01T00:12:22.238Z,99.90
2018-12-01T00:14:50.643Z,99.90
2018-12-01T00:17:19.087Z,99.90
2018-12-01T00:19:47.518Z,99.90
2018-12-01T00:22:15.960Z,99.90
2018-12-01T00:24:44.404Z,99.90
2018-12-01T00:27:12.876Z,99.90
2018-12-01T00:29:41.350Z,99.90
2018-12-01T00:32:09.883Z,99.90
2018-12-01T00:34:38.366Z,99.90
2018-12-01T00:37:06.853Z,99.90
2018-12-01T00:39:35.327Z,99.90
2018-12-01T00:42:03.794Z,99.90
2018-12-01T00:44:32.326Z,99.90
2018-12-01T00:47:00.854Z,99.90
2018-12-01T00:49:29.300Z,99.90
2018-12-01T00:51:57.730Z,99.90
2018-12-01T00:54:26.226Z,99.90
2018-12-01T00:56:54.658Z,99.90
2018-12-01T00:59:23.085Z,99.90
2018-12-01T01:01:51.570Z,99.90
2018-12-01T01:04:20.022Z,99.90
2018-12-01T01:06:48.458Z,99.90
2018-12-01T01:09:17.008Z,99.90
2018-12-01T01:11:45.457Z,99.90
2018-12-01T01:14:13.908Z,99.90
2018-12-01T01:16:42.366Z,99.90
2018-12-01T01:19:10.811Z,99.90
2018-12-01T01:21:39.802Z,99.90
2018-12-01T01:24:08.620Z,99.90
2018-12-01T01:26:37.156Z,99.90
2018-12-01T01:29:06.022Z,99.90
2018-12-01T01:31:34.854Z,99.90
2018-12-01T01:34:03.360Z,99.90
2018-12-01T01:36:31.947Z,99.90
2018-12-01T01:39:00.447Z,99.90
2018-12-01T01:41:29.362Z,99.90
2018-12-01T01:43:57.968Z,99.90
2018-12-01T01:46:26.483Z,99.90
2018-12-01T01:48:54.959Z,99.90
2018-12-01T01:51:23.450Z,99.90
2018-12-01T01:53:51.975Z,99.90
2018-12-01T01:56:20.477Z,99.90
2018-12-01T01:58:48.973Z,99.90
2018-12-01T02:01:17.439Z,99.90
2018-12-01T02:03:45.943Z,99.90
2018-12-01T02:06:14.408Z,99.90
2018-12-01T02:08:42.907Z,99.90
2018-12-01T02:11:11.395Z,99.90
2018-12-01T02:13:39.875Z,99.90
2018-12-01T02:16:08.367Z,99.90
2018-12-01T02:18:36.855Z,99.90
2018-12-01T02:21:06.146Z,99.90
2018-12-01T02:23:34.620Z,99.90
2018-12-01T02:26:03.130Z,99.90
2018-12-01T02:28:31.591Z,99.90
2018-12-01T02:31:00.098Z,99.90
2018-12-01T02:33:28.560Z,99.90
2018-12-01T02:35:57.079Z,99.90
2018-12-01T02:38:25.615Z,99.90
2018-12-01T02:40:54.125Z,99.90
2018-12-01T02:43:22.699Z,99.90
2018-12-01T02:46:02.383Z,99.90
2018-12-01T02:48:30.850Z,99.90
2018-12-01T02:50:59.327Z,99.90
2018-12-01T02:53:27.803Z,99.90
2018-12-01T02:55:56.291Z,99.90
2018-12-01T02:58:24.756Z,99.90
2018-12-01T03:00:53.256Z,99.90
2018-12-01T03:03:21.727Z,99.90
2018-12-01T03:05:50.215Z,99.90
2018-12-01T03:08:18.674Z,99.90
2018-12-01T03:10:47.187Z,99.90
2018-12-01T03:13:15.646Z,99.90
2018-12-01T03:15:44.185Z,99.90
2018-12-01T03:18:13.686Z,99.90
2018-12-01T03:20:41.168Z,99.90
2018-12-01T03:23:09.640Z,99.90
2018-12-01T03:25:38.114Z,99.90
2018-12-01T03:28:06.617Z,99.90
2018-12-01T03:30:35.066Z,99.90
2018-12-01T03:33:03.491Z,99.90
2018-12-01T03:35:31.926Z,99.90
2018-12-01T03:38:00.358Z,99.90
2018-12-01T03:40:33.017Z,99.90
2018-12-01T03:43:01.468Z,99.90
2018-12-01T03:45:29.911Z,99.90
2018-12-01T03:47:58.351Z,99.90
2018-12-01T03:50:26.818Z,99.90
2018-12-01T03:52:56.593Z,99.90
2018-12-01T03:55:30.260Z,99.90
2018-12-01T03:57:58.811Z,99.90
2018-12-01T04:00:29.126Z,99.90
2018-12-01T04:02:58.268Z,99.90
2018-12-01T04:05:26.791Z,99.90
2018-12-01T04:07:55.223Z,99.90
2018-12-01T04:10:23.682Z,99.90
2018-12-01T04:12:52.270Z,99.90
2018-12-01T04:15:20.719Z,99.90
2018-12-01T04:17:49.173Z,99.90
2018-12-01T04:20:17.609Z,99.90
2018-12-01T04:22:46.100Z,99.90
2018-12-01T04:25:14.560Z,99.90
2018-12-01T04:27:43.018Z,99.90
2018-12-01T04:30:15.907Z,99.90
2018-12-01T04:32:44.352Z,99.90
2018-12-01T04:35:17.830Z,99.90
2018-12-01T04:37:47.347Z,99.90
2018-12-01T04:40:15.811Z,99.90
2018-12-01T04:42:45.255Z,99.90
2018-12-01T04:45:13.724Z,99.90
2018-12-01T04:47:42.238Z,99.90
2018-12-01T04:50:12.001Z,99.90
2018-12-01T04:52:40.459Z,99.90
2018-12-01T04:55:11.935Z,99.90
2018-12-01T04:57:40.393Z,99.90
2018-12-01T05:00:12.298Z,99.90
2018-12-01T05:02:40.766Z,99.90
2018-12-01T05:05:14.866Z,99.90
2018-12-01T05:07:43.351Z,99.90
2018-12-01T05:10:12.958Z,99.90
2018-12-01T05:12:41.402Z,99.90
2018-12-01T05:15:11.860Z,99.90
2018-12-01T05:17:40.309Z,99.90
2018-12-01T05:20:13.131Z,99.90
2018-12-01T05:22:41.618Z,99.90
2018-12-01T05:25:10.750Z,99.90
2018-12-01T05:27:39.283Z,99.90
2018-12-01T05:30:08.550Z,99.90
2018-12-01T05:32:37.914Z,99.90
2018-12-01T05:35:14.081Z,99.90
2018-12-01T05:37:42.582Z,99.90
2018-12-01T05:40:12.081Z,99.90
2018-12-01T05:42:40.609Z,99.90
2018-12-01T05:45:16.792Z,99.90
2018-12-01T05:47:45.300Z,99.90
2018-12-01T05:50:14.806Z,99.90
2018-12-01T05:52:43.287Z,99.90
2018-12-01T05:55:12.499Z,99.90
2018-12-01T05:57:41.013Z,99.90
2018-12-01T06:00:13.810Z,99.90
2018-12-01T06:02:42.304Z,99.90
2018-12-01T06:05:11.535Z,99.90
2018-12-01T06:07:40.921Z,99.90
2018-12-01T06:10:19.148Z,99.90
2018-12-01T06:12:48.334Z,99.90
2018-12-01T06:15:17.650Z,99.90
2018-12-01T06:17:46.192Z,99.90
2018-12-01T06:20:18.773Z,99.90
2018-12-01T06:22:47.261Z,99.90
2018-12-01T06:25:16.879Z,99.90
2018-12-01T06:27:45.442Z,99.90
2018-12-01T06:30:15.117Z,99.90
2018-12-01T06:32:43.730Z,99.90
2018-12-01T06:35:12.235Z,99.90
2018-12-01T06:37:40.835Z,99.90
2018-12-01T06:40:12.113Z,99.90
2018-12-01T06:42:40.130Z,99.90
2018-12-01T06:45:10.022Z,99.90
2018-12-01T06:47:38.554Z,99.90
2018-12-01T06:50:16.456Z,99.90
2018-12-01T06:52:45.002Z,99.90
2018-12-01T06:55:14.398Z,99.90
2018-12-01T06:57:43.828Z,99.90
2018-12-01T07:00:13.545Z,99.90
2018-12-01T07:02:42.632Z,99.90
2018-12-01T07:05:12.012Z,99.90
2018-12-01T07:07:40.491Z,99.90
2018-12-01T07:10:11.252Z,99.90
2018-12-01T07:12:40.446Z,99.90
2018-12-01T07:15:11.075Z,99.90
2018-12-01T07:17:39.570Z,99.90
2018-12-01T07:20:09.063Z,99.90
2018-12-01T07:22:37.553Z,99.90
2018-12-01T07:25:06.787Z,99.90
2018-12-01T07:27:35.303Z,99.90
2018-12-01T07:30:04.288Z,99.90
2018-12-01T07:32:32.724Z,99.90
2018-12-01T07:35:01.167Z,99.90
2018-12-01T07:37:29.623Z,99.90
2018-12-01T07:39:58.045Z,99.90
2018-12-01T07:42:26.500Z,99.90
2018-12-01T07:44:54.917Z,99.90
2018-12-01T07:47:23.354Z,99.90
2018-12-01T07:49:51.791Z,99.90
2018-12-01T07:52:20.251Z,99.90
2018-12-01T07:54:48.668Z,99.90
2018-12-01T07:57:17.099Z,99.90
2018-12-01T07:59:45.530Z,99.90
2018-12-01T08:02:13.951Z,99.90
2018-12-01T08:04:42.386Z,99.90
2018-12-01T08:07:10.830Z,99.90
2018-12-01T08:09:39.285Z,99.90
2018-12-01T08:12:07.715Z,99.90
2018-12-01T08:14:36.146Z,99.90
2018-12-01T08:17:04.846Z,99.90
2018-12-01T08:19:33.289Z,99.90
2018-12-01T08:22:01.721Z,99.90
2018-12-01T08:24:30.151Z,99.90
2018-12-01T08:26:58.592Z,99.90
2018-12-01T08:29:27.071Z,99.90
2018-12-01T08:31:55.578Z,99.90
2018-12-01T08:34:24.014Z,99.90
2018-12-01T08:36:52.450Z,99.90
2018-12-01T08:39:20.919Z,99.90
2018-12-01T08:41:49.351Z,99.90
2018-12-01T08:44:17.791Z,99.90
2018-12-01T08:46:46.208Z,99.90
2018-12-01T08:49:14.674Z,99.90
2018-12-01T08:51:43.118Z,99.90
2018-12-01T08:54:11.569Z,99.90
2018-12-01T08:56:39.986Z,99.90
2018-12-01T08:59:08.451Z,99.90
2018-12-01T09:01:36.886Z,99.90
2018-12-01T09:04:05.346Z,99.90
2018-12-01T09:06:33.775Z,99.90
2018-12-01T09:09:02.206Z,99.90
2018-12-01T09:11:30.626Z,99.90
2018-12-01T09:13:59.072Z,99.90
2018-12-01T09:16:27.503Z,99.90
2018-12-01T09:18:55.942Z,99.90
2018-12-01T09:21:24.434Z,99.90
2018-12-01T09:23:52.885Z,99.80
2018-12-01T09:26:21.316Z,99.90
2018-12-01T09:28:49.771Z,99.90
2018-12-01T09:31:18.268Z,99.80
2018-12-01T09:33:46.787Z,99.90
2018-12-01T09:36:15.243Z,99.80
2018-12-01T09:38:43.743Z,99.60
2018-12-01T09:41:12.225Z,99.60
2018-12-01T09:43:41.557Z,99.80
2018-12-01T09:46:10.054Z,99.90
2018-12-01T09:48:38.548Z,99.90
2018-12-01T09:51:07.114Z,99.70
2018-12-01T09:53:35.623Z,99.90
2018-12-01T09:56:04.138Z,99.40
2018-12-01T09:58:32.631Z,98.70
2018-12-01T10:01:02.659Z,98.60
2018-12-01T10:03:30.044Z,98.80
2018-12-01T10:05:58.517Z,98.40
2018-12-01T10:08:27.044Z,98.00
2018-12-01T10:10:55.526Z,97.50
2018-12-01T10:13:23.960Z,97.40
2018-12-01T10:15:52.387Z,97.40
2018-12-01T10:18:20.844Z,97.30
2018-12-01T10:20:49.299Z,97.40
2018-12-01T10:23:17.756Z,96.20
2018-12-01T10:25:46.208Z,95.30
2018-12-01T10:28:14.644Z,95.00
2018-12-01T10:30:43.107Z,94.50
2018-12-01T10:33:11.551Z,94.60
2018-12-01T10:35:39.988Z,94.20
2018-12-01T10:38:10.362Z,94.30
2018-12-01T10:40:38.828Z,94.40
2018-12-01T10:43:07.795Z,94.40
2018-12-01T10:45:36.247Z,94.20
2018-12-01T10:48:05.112Z,93.80
2018-12-01T10:50:33.585Z,94.70
2018-12-01T10:53:02.034Z,93.20
2018-12-01T10:55:32.495Z,93.20
2018-12-01T10:58:02.382Z,93.20
2018-12-01T11:00:36.783Z,92.80
2018-12-01T11:04:09.814Z,92.50
2018-12-01T11:06:38.240Z,92.30
2018-12-01T11:09:08.547Z,91.70
2018-12-01T11:11:36.966Z,91.50
2018-12-01T11:14:05.466Z,91.30
2018-12-01T11:16:33.902Z,91.10
2018-12-01T11:19:02.350Z,90.90
2018-12-01T11:21:30.822Z,91.40
2018-12-01T11:23:59.330Z,91.10
2018-12-01T11:26:27.783Z,90.50
2018-12-01T11:28:56.327Z,90.90
2018-12-01T11:31:24.866Z,91.00
2018-12-01T11:33:53.402Z,91.00
2018-12-01T11:36:21.922Z,90.10
2018-12-01T11:38:50.393Z,90.40
2018-12-01T11:41:18.887Z,90.50
2018-12-01T11:43:47.396Z,90.90
2018-12-01T11:46:15.911Z,90.50
2018-12-01T11:48:44.431Z,90.30
2018-12-01T11:51:12.987Z,90.00
2018-12-01T11:53:41.470Z,89.80
2018-12-01T11:56:10.685Z,89.50
2018-12-01T11:58:39.198Z,89.60
2018-12-01T12:01:07.728Z,89.20
2018-12-01T12:03:36.222Z,87.50
2018-12-01T12:06:04.767Z,86.90
2018-12-01T12:08:33.427Z,87.20
2018-12-01T12:11:01.939Z,85.70
2018-12-01T12:13:30.755Z,86.10
2018-12-01T12:15:59.339Z,87.20
2018-12-01T12:18:28.885Z,87.20
2018-12-01T12:20:56.409Z,87.60
2018-12-01T12:23:24.903Z,88.20
2018-12-01T12:25:53.414Z,89.50
2018-12-01T12:28:21.911Z,89.00
2018-12-01T12:30:50.488Z,88.00
2018-12-01T12:33:19.011Z,89.20
2018-12-01T12:35:47.482Z,85.80
2018-12-01T12:38:15.987Z,85.50
2018-12-01T12:40:44.483Z,84.80
2018-12-01T12:43:12.962Z,84.80
2018-12-01T12:45:41.431Z,84.60
2018-12-01T12:48:10.118Z,85.00
2018-12-01T12:50:38.573Z,84.20
2018-12-01T12:53:07.092Z,84.50
2018-12-01T12:55:35.594Z,84.20
2018-12-01T12:58:04.074Z,82.50
2018-12-01T13:00:32.526Z,83.50
2018-12-01T13:03:02.457Z,82.10
2018-12-01T13:05:34.430Z,82.10
2018-12-01T13:08:02.967Z,82.90
2018-12-01T13:10:31.531Z,83.40
2018-12-01T13:13:00.133Z,84.20
2018-12-01T13:15:29.059Z,84.00
2018-12-01T13:17:57.482Z,84.40
2018-12-01T13:20:26.013Z,84.20
2018-12-01T13:22:57.658Z,83.70
2018-12-01T13:25:26.095Z,84.10
2018-12-01T13:28:03.165Z,83.20
2018-12-01T13:30:37.398Z,82.90
2018-12-01T13:33:05.962Z,83.00
2018-12-01T13:35:34.443Z,83.60
2018-12-01T13:38:02.938Z,83.60
2018-12-01T13:40:31.434Z,81.90
2018-12-01T13:42:59.941Z,81.90
2018-12-01T13:45:28.441Z,81.80
2018-12-01T13:47:56.929Z,81.80
2018-12-01T13:50:25.540Z,81.80
2018-12-01T13:52:55.462Z,81.80
2018-12-01T13:55:23.914Z,81.90
2018-12-01T13:57:52.538Z,82.60
2018-12-01T14:00:24.965Z,83.60
2018-12-01T14:02:53.432Z,83.40
2018-12-01T14:05:21.991Z,83.60
2018-12-01T14:07:50.476Z,83.70
2018-12-01T14:10:20.119Z,83.80
2018-12-01T14:12:51.110Z,84.80
2018-12-01T14:15:21.660Z,84.30
2018-12-01T14:17:50.231Z,85.00
2018-12-01T14:20:19.047Z,85.00
2018-12-01T14:22:48.409Z,85.40
2018-12-01T14:25:18.915Z,85.80
2018-12-01T14:28:05.806Z,85.20
2018-12-01T14:30:35.268Z,85.10
2018-12-01T14:33:05.940Z,85.40
2018-12-01T14:35:36.138Z,85.70
2018-12-01T14:38:13.358Z,85.40
2018-12-01T14:40:44.087Z,85.30
2018-12-01T14:43:12.639Z,85.60
2018-12-01T14:45:41.850Z,85.70
2018-12-01T14:48:10.375Z,85.70
2018-12-01T14:50:38.867Z,86.20
2018-12-01T14:53:08.494Z,86.60
2018-12-01T14:55:37.070Z,87.20
2018-12-01T14:58:06.092Z,87.10
2018-12-01T15:00:34.680Z,87.00
2018-12-01T15:03:03.177Z,87.30
2018-12-01T15:05:31.622Z,87.40
2018-12-01T15:08:00.115Z,87.70
2018-12-01T15:10:28.587Z,87.70
2018-12-01T15:12:57.039Z,87.80
2018-12-01T15:15:26.384Z,87.20
2018-12-01T15:17:54.866Z,86.60
2018-12-01T15:20:24.495Z,86.20
2018-12-01T15:22:55.124Z,85.90
2018-12-01T15:25:27.457Z,85.90
2018-12-01T15:27:56.008Z,86.10
2018-12-01T15:30:25.416Z,86.10
2018-12-01T15:33:01.343Z,86.40
2018-12-01T15:35:29.838Z,86.50
2018-12-01T15:37:58.353Z,86.70
2018-12-01T15:43:06.048Z,86.90
2018-12-01T15:45:34.581Z,86.80
2018-12-01T15:48:03.018Z,86.70
2018-12-01T15:50:31.470Z,86.20
2018-12-01T15:52:59.920Z,85.80
2018-12-01T15:55:28.319Z,86.10
2018-12-01T15:57:56.743Z,86.20
2018-12-01T16:00:26.295Z,86.40
2018-12-01T16:02:54.786Z,86.10
2018-12-01T16:05:24.095Z,86.00
2018-12-01T16:07:54.570Z,86.90
2018-12-01T16:10:23.755Z,87.20
2018-12-01T16:12:57.670Z,87.30
2018-12-01T16:15:31.465Z,86.40
2018-12-01T16:17:59.906Z,86.30
2018-12-01T16:20:28.454Z,85.80
2018-12-01T16:22:56.892Z,85.70
2018-12-01T16:25:25.885Z,85.70
2018-12-01T16:27:54.328Z,85.60
2018-12-01T16:30:29.237Z,86.20
2018-12-01T16:33:00.953Z,86.20
2018-12-01T16:35:29.418Z,87.10
2018-12-01T16:37:58.593Z,86.80
2018-12-01T16:40:33.893Z,86.90
2018-12-01T16:43:03.863Z,86.80
2018-12-01T16:45:32.396Z,86.40
2018-12-01T16:48:00.961Z,87.10
2018-12-01T16:50:29.554Z,87.60
2018-12-01T16:52:58.054Z,88.10
2018-12-01T16:55:26.523Z,87.50
2018-12-01T16:57:54.959Z,87.40
2018-12-01T17:00:23.373Z,87.90
2018-12-01T17:02:53.349Z,87.80
2018-12-01T17:05:22.884Z,88.00
2018-12-01T17:07:51.409Z,88.00
2018-12-01T17:10:20.884Z,87.70
2018-12-01T17:12:53.659Z,88.50
2018-12-01T17:15:22.457Z,88.60
2018-12-01T17:17:50.883Z,88.70
2018-12-01T17:20:19.540Z,88.80
2018-12-01T17:22:54.417Z,88.80
2018-12-01T17:25:22.857Z,88.80
2018-12-01T17:27:52.193Z,88.60
2018-12-01T17:30:28.720Z,88.30
2018-12-01T17:32:58.201Z,87.80
2018-12-01T17:35:27.790Z,87.80
2018-12-01T17:37:57.494Z,87.60
2018-12-01T17:40:35.481Z,87.80
2018-12-01T17:43:04.705Z,86.70
2018-12-01T17:45:33.165Z,87.10
2018-12-01T17:48:01.587Z,86.60
2018-12-01T17:50:30.001Z,86.50
2018-12-01T17:52:58.427Z,86.70
2018-12-01T17:55:28.154Z,86.90
2018-12-01T17:57:56.621Z,86.90
2018-12-01T18:00:26.512Z,87.00
2018-12-01T18:02:56.441Z,87.00
2018-12-01T18:05:34.481Z,87.10
2018-12-01T18:08:03.185Z,87.00
2018-12-01T18:10:31.638Z,87.40
2018-12-01T18:13:00.027Z,87.40
2018-12-01T18:15:28.564Z,87.00
2018-12-01T18:17:56.960Z,87.60
2018-12-01T18:20:25.381Z,87.80
2018-12-01T18:23:00.084Z,88.20
2018-12-01T18:25:34.624Z,88.40
2018-12-01T18:28:03.088Z,88.40
2018-12-01T18:30:35.811Z,88.40
2018-12-01T18:33:11.734Z,88.40
2018-12-01T18:35:40.315Z,88.40
2018-12-01T18:38:09.748Z,88.40
2018-12-01T18:40:38.179Z,88.40
2018-12-01T18:43:07.392Z,88.90
2018-12-01T18:45:35.969Z,89.20
2018-12-01T18:48:04.421Z,89.20
2018-12-01T18:50:32.840Z,89.30
2018-12-01T18:53:02.825Z,90.00
2018-12-01T18:55:32.769Z,89.70
2018-12-01T18:58:01.267Z,89.20
2018-12-01T19:00:48.084Z,89.00
2018-12-01T19:03:16.720Z,89.30
2018-12-01T19:05:45.173Z,89.70
2018-12-01T19:08:13.573Z,88.70
2018-12-01T19:10:41.986Z,88.80
2018-12-01T19:13:10.432Z,89.30
2018-12-01T19:15:38.972Z,89.30
2018-12-01T19:18:08.142Z,89.20
2018-12-01T19:20:36.913Z,89.30
2018-12-01T19:23:06.642Z,88.90
2018-12-01T19:25:35.156Z,88.60
2018-12-01T19:28:03.685Z,88.50
2018-12-01T19:30:32.145Z,88.50
2018-12-01T19:33:07.635Z,88.50
2018-12-01T19:35:36.066Z,88.40
2018-12-01T19:38:04.505Z,87.80
2018-12-01T19:40:33.908Z,88.50
2018-12-01T19:43:02.900Z,88.50
2018-12-01T19:45:31.320Z,88.50
2018-12-01T19:47:59.786Z,87.80
2018-12-01T19:50:33.440Z,88.50
2018-12-01T19:53:01.852Z,88.50
2018-12-01T19:55:30.727Z,88.40
2018-12-01T19:57:59.737Z,87.70
2018-12-01T20:00:29.120Z,87.70
2018-12-01T20:02:59.250Z,87.90
2018-12-01T20:05:27.737Z,87.30
2018-12-01T20:07:56.197Z,87.80
2018-12-01T20:10:30.336Z,86.70
2018-12-01T20:13:03.891Z,87.20
2018-12-01T20:15:38.625Z,87.00
2018-12-01T20:18:14.450Z,86.60
2018-12-01T20:20:42.845Z,86.80
2018-12-01T20:23:11.228Z,87.30
2018-12-01T20:25:39.635Z,87.80
2018-12-01T20:28:08.033Z,87.70
2018-12-01T20:30:36.473Z,88.10
2018-12-01T20:33:04.893Z,88.10
2018-12-01T20:35:37.064Z,88.40
2018-12-01T20:38:15.216Z,88.10
2018-12-01T20:40:43.624Z,88.40
2018-12-01T20:43:12.041Z,88.40
2018-12-01T20:45:40.474Z,88.40
2018-12-01T20:48:08.885Z,88.60
2018-12-01T20:50:37.329Z,88.40
2018-12-01T20:53:06.691Z,88.40
2018-12-01T20:55:35.101Z,88.40
2018-12-01T20:58:05.261Z,88.70
2018-12-01T21:00:33.661Z,88.50
2018-12-01T21:03:02.046Z,88.30
2018-12-01T21:05:30.448Z,88.30
2018-12-01T21:08:02.268Z,88.90
2018-12-01T21:10:30.861Z,87.90
2018-12-01T21:13:00.662Z,88.30
2018-12-01T21:15:29.097Z,88.30
2018-12-01T21:17:57.523Z,88.30
2018-12-01T21:20:25.949Z,88.30
2018-12-01T21:22:54.410Z,88.30
2018-12-01T21:25:25.398Z,88.30
2018-12-01T21:27:55.053Z,88.30
2018-12-01T21:30:25.670Z,88.20
2018-12-01T21:33:01.036Z,88.30
2018-12-01T21:35:29.484Z,88.30
2018-12-01T21:37:57.937Z,88.80
2018-12-01T21:40:26.417Z,88.40
2018-12-01T21:42:54.853Z,88.20
2018-12-01T21:45:23.333Z,88.30
2018-12-01T21:47:51.812Z,88.20
2018-12-01T21:50:21.638Z,87.90
2018-12-01T21:52:52.585Z,88.10
2018-12-01T21:55:21.285Z,87.70
2018-12-01T21:57:50.358Z,88.30
2018-12-01T22:00:27.728Z,88.00
2018-12-01T22:03:03.954Z,87.70
2018-12-01T22:05:39.332Z,87.30
2018-12-01T22:08:09.461Z,86.70
2018-12-01T22:10:37.913Z,86.70
2018-12-01T22:13:06.738Z,86.20
2018-12-01T22:15:35.177Z,86.20
2018-12-01T22:18:03.772Z,86.50
2018-12-01T22:20:32.221Z,85.90
2018-12-01T22:23:00.890Z,86.10
2018-12-01T22:25:29.329Z,86.00
2018-12-01T22:27:57.782Z,86.10
2018-12-01T22:30:26.233Z,85.80
2018-12-01T22:32:58.661Z,84.10
2018-12-01T22:35:28.294Z,85.00
2018-12-01T22:37:57.600Z,84.10
2018-12-01T22:40:29.325Z,84.10
2018-12-01T22:42:59.290Z,84.10
2018-12-01T22:45:27.726Z,83.80
2018-12-01T22:47:56.433Z,83.90
2018-12-01T22:50:24.853Z,83.40
2018-12-01T22:52:54.017Z,83.20
2018-12-01T22:55:24.437Z,82.70
2018-12-01T22:57:54.257Z,82.80
2018-12-01T23:00:25.539Z,82.40
2018-12-01T23:02:53.976Z,82.70
2018-12-01T23:05:22.434Z,82.50
2018-12-01T23:07:50.868Z,82.80
2018-12-01T23:10:19.300Z,82.40
2018-12-01T23:12:47.733Z,82.20
2018-12-01T23:15:17.131Z,82.40
2018-12-01T23:17:48.497Z,82.50
2018-12-01T23:20:18.259Z,82.60
2018-12-01T23:22:46.950Z,82.60
2018-12-01T23:25:15.466Z,82.80
2018-12-01T23:27:43.944Z,82.60
2018-12-01T23:30:28.565Z,82.50
2018-12-01T23:32:59.445Z,83.00
2018-12-01T23:35:28.546Z,83.40
2018-12-01T23:37:57.056Z,83.80
2018-12-01T23:40:25.509Z,83.90
2018-12-01T23:42:54.061Z,84.00
2018-12-01T23:45:22.832Z,83.90
2018-12-01T23:47:51.366Z,84.10
2018-12-01T23:50:22.657Z,84.60
2018-12-01T23:52:55.262Z,84.50
2018-12-01T23:55:23.737Z,84.80
2018-12-01T23:57:52.233Z,84.80
